sensor_id;sensor_type;location;lat;lon;timestamp;P1;durP1;ratioP1;P2;durP2;ratioP2
4078;SDS011;2054;47.858;11.156;2023-09-19T02:47:28;1.88;;;1.40;;
4078;SDS011;2054;47.858;11.156;2023-09-19T02:49:56;2.08;;;1.50;;
4078;SDS011;2054;47.858;11.156;2023-09-19T02:52:23;2.05;;;1.67;;
4078;SDS011;2054;47.858;11.156;2023-09-19T02:54:50;1.63;;;1.38;;
4078;SDS011;2054;47.858;11.156;2023-09-19T02:57:18;2.22;;;1.42;;
4078;SDS011;2054;47.858;11.156;2023-09-19T02:59:45;3.38;;;1.80;;
4078;SDS011;2054;47.858;11.156;2023-09-19T03:02:12;2.22;;;1.52;;
4078;SDS011;2054;47.858;11.156;2023-09-19T03:04:41;3.30;;;1.90;;
4078;SDS011;2054;47.858;11.156;2023-09-19T03:07:09;3.17;;;1.60;;
4078;SDS011;2054;47.858;11.156;2023-09-19T03:09:36;2.78;;;1.83;;
4078;SDS011;2054;47.858;11.156;2023-09-19T03:12:04;4.25;;;1.60;;
4078;SDS011;2054;47.858;11.156;2023-09-19T03:14:31;3.85;;;1.63;;
4078;SDS011;2054;47.858;11.156;2023-09-19T03:17:00;2.38;;;1.40;;
4078;SDS011;2054;47.858;11.156;2023-09-19T03:19:29;3.10;;;1.38;;
4078;SDS011;2054;47.858;11.156;2023-09-19T03:21:59;3.78;;;1.38;;
4078;SDS011;2054;47.858;11.156;2023-09-19T03:24:28;3.92;;;1.60;;
4078;SDS011;2054;47.858;11.156;2023-09-19T03:26:56;3.55;;;1.65;;
4078;SDS011;2054;47.858;11.156;2023-09-19T03:29:23;1.90;;;1.67;;
4078;SDS011;2054;47.858;11.156;2023-09-19T03:31:52;3.10;;;1.40;;
4078;SDS011;2054;47.858;11.156;2023-09-19T03:34:19;1.95;;;1.42;;
4078;SDS011;2054;47.858;11.156;2023-09-19T03:36:46;2.83;;;1.40;;
4078;SDS011;2054;47.858;11.156;2023-09-19T03:39:15;1.60;;;1.17;;
4078;SDS011;2054;47.858;11.156;2023-09-19T03:41:42;1.05;;;0.98;;
4078;SDS011;2054;47.858;11.156;2023-09-19T03:44:10;1.63;;;1.30;;
4078;SDS011;2054;47.858;11.156;2023-09-19T03:46:37;1.30;;;1.20;;
4078;SDS011;2054;47.858;11.156;2023-09-19T03:49:04;1.50;;;1.40;;
4078;SDS011;2054;47.858;11.156;2023-09-19T03:51:30;1.92;;;1.20;;
4078;SDS011;2054;47.858;11.156;2023-09-19T03:53:59;1.42;;;1.33;;
4078;SDS011;2054;47.858;11.156;2023-09-19T03:56:30;1.23;;;1.05;;
4078;SDS011;2054;47.858;11.156;2023-09-19T03:58:57;3.15;;;1.30;;
4078;SDS011;2054;47.858;11.156;2023-09-19T04:01:25;2.85;;;1.30;;
4078;SDS011;2054;47.858;11.156;2023-09-19T04:03:53;1.77;;;1.40;;
4078;SDS011;2054;47.858;11.156;2023-09-19T04:06:21;1.35;;;1.00;;
4078;SDS011;2054;47.858;11.156;2023-09-19T04:08:47;1.08;;;0.95;;
4078;SDS011;2054;47.858;11.156;2023-09-19T04:11:15;1.25;;;1.00;;
4078;SDS011;2054;47.858;11.156;2023-09-19T04:13:43;1.33;;;1.00;;
4078;SDS011;2054;47.858;11.156;2023-09-19T04:16:10;3.17;;;1.20;;
4078;SDS011;2054;47.858;11.156;2023-09-19T04:18:37;2.00;;;1.20;;
4078;SDS011;2054;47.858;11.156;2023-09-19T04:21:06;1.55;;;1.20;;
4078;SDS011;2054;47.858;11.156;2023-09-19T04:23:34;1.23;;;0.90;;
4078;SDS011;2054;47.858;11.156;2023-09-19T04:26:01;1.75;;;1.10;;
4078;SDS011;2054;47.858;11.156;2023-09-19T04:28:29;2.45;;;1.13;;
4078;SDS011;2054;47.858;11.156;2023-09-19T04:30:57;1.20;;;1.05;;
4078;SDS011;2054;47.858;11.156;2023-09-19T04:33:24;0.95;;;0.95;;
4078;SDS011;2054;47.858;11.156;2023-09-19T04:35:52;1.73;;;1.10;;
4078;SDS011;2054;47.858;11.156;2023-09-19T04:38:20;5.25;;;1.23;;
4078;SDS011;2054;47.858;11.156;2023-09-19T04:40:47;0.98;;;0.98;;
4078;SDS011;2054;47.858;11.156;2023-09-19T04:43:14;1.63;;;1.23;;
4078;SDS011;2054;47.858;11.156;2023-09-19T04:45:42;2.17;;;1.02;;
4078;SDS011;2054;47.858;11.156;2023-09-19T04:48:10;2.25;;;0.90;;
4078;SDS011;2054;47.858;11.156;2023-09-19T04:50:39;2.15;;;1.30;;
4078;SDS011;2054;47.858;11.156;2023-09-19T04:53:06;1.98;;;1.10;;
4078;SDS011;2054;47.858;11.156;2023-09-19T04:55:33;1.80;;;1.00;;
4078;SDS011;2054;47.858;11.156;2023-09-19T04:58:00;1.92;;;1.40;;
4078;SDS011;2054;47.858;11.156;2023-09-19T05:00:27;2.08;;;1.20;;
4078;SDS011;2054;47.858;11.156;2023-09-19T05:02:56;1.20;;;1.10;;
4078;SDS011;2054;47.858;11.156;2023-09-19T05:05:24;1.63;;;1.10;;
4078;SDS011;2054;47.858;11.156;2023-09-19T05:07:52;1.55;;;1.23;;
4078;SDS011;2054;47.858;11.156;2023-09-19T05:10:20;1.30;;;1.00;;
4078;SDS011;2054;47.858;11.156;2023-09-19T05:12:47;0.90;;;0.90;;
4078;SDS011;2054;47.858;11.156;2023-09-19T05:15:16;5.38;;;1.50;;
4078;SDS011;2054;47.858;11.156;2023-09-19T05:17:47;2.20;;;1.20;;
4078;SDS011;2054;47.858;11.156;2023-09-19T05:20:16;1.08;;;0.98;;
4078;SDS011;2054;47.858;11.156;2023-09-19T05:22:51;2.50;;;1.20;;
4078;SDS011;2054;47.858;11.156;2023-09-19T05:25:24;5.57;;;1.33;;
4078;SDS011;2054;47.858;11.156;2023-09-19T05:27:54;2.47;;;1.10;;
4078;SDS011;2054;47.858;11.156;2023-09-19T05:30:22;1.25;;;1.15;;
4078;SDS011;2054;47.858;11.156;2023-09-19T05:32:49;1.30;;;1.20;;
4078;SDS011;2054;47.858;11.156;2023-09-19T05:35:17;3.80;;;1.13;;
4078;SDS011;2054;47.858;11.156;2023-09-19T05:37:46;4.07;;;1.20;;
4078;SDS011;2054;47.858;11.156;2023-09-19T05:40:15;1.60;;;1.10;;
4078;SDS011;2054;47.858;11.156;2023-09-19T05:42:42;2.20;;;1.23;;
4078;SDS011;2054;47.858;11.156;2023-09-19T05:45:09;1.20;;;1.05;;
4078;SDS011;2054;47.858;11.156;2023-09-19T05:47:37;1.55;;;1.10;;
4078;SDS011;2054;47.858;11.156;2023-09-19T05:50:05;2.30;;;1.17;;
4078;SDS011;2054;47.858;11.156;2023-09-19T05:52:34;1.45;;;1.15;;
4078;SDS011;2054;47.858;11.156;2023-09-19T05:55:03;1.38;;;1.00;;
4078;SDS011;2054;47.858;11.156;2023-09-19T05:57:33;1.17;;;1.02;;
4078;SDS011;2054;47.858;11.156;2023-09-19T06:00:00;0.90;;;0.90;;
4078;SDS011;2054;47.858;11.156;2023-09-19T06:02:29;1.48;;;1.20;;
4078;SDS011;2054;47.858;11.156;2023-09-19T06:04:55;1.65;;;1.25;;
4078;SDS011;2054;47.858;11.156;2023-09-19T06:07:23;2.40;;;1.40;;
4078;SDS011;2054;47.858;11.156;2023-09-19T06:09:51;1.35;;;1.13;;
4078;SDS011;2054;47.858;11.156;2023-09-19T06:12:19;1.48;;;1.20;;
4078;SDS011;2054;47.858;11.156;2023-09-19T06:14:47;1.63;;;1.05;;
4078;SDS011;2054;47.858;11.156;2023-09-19T06:17:14;2.25;;;1.33;;
4078;SDS011;2054;47.858;11.156;2023-09-19T06:19:42;0.90;;;0.90;;
4078;SDS011;2054;47.858;11.156;2023-09-19T06:22:14;2.03;;;1.20;;
4078;SDS011;2054;47.858;11.156;2023-09-19T06:24:43;1.27;;;1.15;;
4078;SDS011;2054;47.858;11.156;2023-09-19T06:27:09;1.45;;;0.90;;
4078;SDS011;2054;47.858;11.156;2023-09-19T06:29:36;1.23;;;0.95;;
4078;SDS011;2054;47.858;11.156;2023-09-19T06:32:08;1.30;;;1.10;;
4078;SDS011;2054;47.858;11.156;2023-09-19T06:34:35;1.38;;;1.20;;
4078;SDS011;2054;47.858;11.156;2023-09-19T06:37:03;2.28;;;1.20;;
4078;SDS011;2054;47.858;11.156;2023-09-19T06:39:31;2.28;;;1.20;;
4078;SDS011;2054;47.858;11.156;2023-09-19T06:41:58;2.47;;;1.00;;
4078;SDS011;2054;47.858;11.156;2023-09-19T06:44:26;1.98;;;0.90;;
4078;SDS011;2054;47.858;11.156;2023-09-19T06:46:54;1.55;;;1.08;;
4078;SDS011;2054;47.858;11.156;2023-09-19T06:49:23;2.20;;;1.17;;
4078;SDS011;2054;47.858;11.156;2023-09-19T06:51:50;2.25;;;0.93;;
4078;SDS011;2054;47.858;11.156;2023-09-19T06:54:18;2.67;;;1.08;;
4078;SDS011;2054;47.858;11.156;2023-09-19T06:56:45;2.22;;;1.20;;
4078;SDS011;2054;47.858;11.156;2023-09-19T06:59:12;3.28;;;1.20;;
4078;SDS011;2054;47.858;11.156;2023-09-19T07:01:39;2.03;;;1.08;;
4078;SDS011;2054;47.858;11.156;2023-09-19T07:04:06;1.52;;;1.08;;
4078;SDS011;2054;47.858;11.156;2023-09-19T07:06:35;4.18;;;1.10;;
4078;SDS011;2054;47.858;11.156;2023-09-19T07:09:02;1.92;;;1.30;;
4078;SDS011;2054;47.858;11.156;2023-09-19T07:11:30;1.35;;;1.13;;
4078;SDS011;2054;47.858;11.156;2023-09-19T07:13:57;2.33;;;1.10;;
4078;SDS011;2054;47.858;11.156;2023-09-19T07:16:24;2.20;;;1.30;;
4078;SDS011;2054;47.858;11.156;2023-09-19T07:18:54;1.20;;;1.10;;
4078;SDS011;2054;47.858;11.156;2023-09-19T07:21:21;1.67;;;1.13;;
4078;SDS011;2054;47.858;11.156;2023-09-19T07:23:49;1.50;;;1.10;;
4078;SDS011;2054;47.858;11.156;2023-09-19T07:26:16;3.58;;;1.02;;
4078;SDS011;2054;47.858;11.156;2023-09-19T07:28:43;1.20;;;1.05;;
4078;SDS011;2054;47.858;11.156;2023-09-19T07:31:10;2.30;;;1.30;;
4078;SDS011;2054;47.858;11.156;2023-09-19T07:33:39;1.35;;;1.00;;
4078;SDS011;2054;47.858;11.156;2023-09-19T07:36:09;1.40;;;1.10;;
4078;SDS011;2054;47.858;11.156;2023-09-19T07:38:38;1.50;;;1.10;;
4078;SDS011;2054;47.858;11.156;2023-09-19T07:41:07;1.98;;;1.20;;
4078;SDS011;2054;47.858;11.156;2023-09-19T07:43:35;1.42;;;0.88;;
4078;SDS011;2054;47.858;11.156;2023-09-19T07:46:04;2.47;;;1.35;;
4078;SDS011;2054;47.858;11.156;2023-09-19T07:48:34;1.63;;;1.13;;
4078;SDS011;2054;47.858;11.156;2023-09-19T07:51:04;1.08;;;0.98;;
4078;SDS011;2054;47.858;11.156;2023-09-19T07:53:31;1.02;;;0.93;;
4078;SDS011;2054;47.858;11.156;2023-09-19T07:56:03;0.93;;;0.80;;
4078;SDS011;2054;47.858;11.156;2023-09-19T07:58:32;1.90;;;0.80;;
4078;SDS011;2054;47.858;11.156;2023-09-19T08:01:04;1.67;;;1.00;;
4078;SDS011;2054;47.858;11.156;2023-09-19T08:03:31;5.05;;;1.00;;
4078;SDS011;2054;47.858;11.156;2023-09-19T08:05:58;1.27;;;0.90;;
4078;SDS011;2054;47.858;11.156;2023-09-19T08:08:25;1.25;;;1.00;;
4078;SDS011;2054;47.858;11.156;2023-09-19T08:10:53;0.90;;;0.80;;
4078;SDS011;2054;47.858;11.156;2023-09-19T08:13:21;2.22;;;1.35;;
4078;SDS011;2054;47.858;11.156;2023-09-19T08:15:50;1.80;;;1.00;;
4078;SDS011;2054;47.858;11.156;2023-09-19T08:18:18;2.47;;;1.00;;
4078;SDS011;2054;47.858;11.156;2023-09-19T08:20:49;1.42;;;0.95;;
4078;SDS011;2054;47.858;11.156;2023-09-19T08:23:16;1.27;;;1.00;;
4078;SDS011;2054;47.858;11.156;2023-09-19T08:25:46;1.13;;;1.00;;
4078;SDS011;2054;47.858;11.156;2023-09-19T08:28:13;2.08;;;1.00;;
4078;SDS011;2054;47.858;11.156;2023-09-19T08:30:44;1.33;;;1.20;;
4078;SDS011;2054;47.858;11.156;2023-09-19T08:33:12;1.50;;;0.90;;
4078;SDS011;2054;47.858;11.156;2023-09-19T08:35:40;1.23;;;0.90;;
4078;SDS011;2054;47.858;11.156;2023-09-19T08:38:08;1.40;;;0.90;;
4078;SDS011;2054;47.858;11.156;2023-09-19T08:40:36;0.80;;;0.80;;
4078;SDS011;2054;47.858;11.156;2023-09-19T08:43:04;1.10;;;1.00;;
4078;SDS011;2054;47.858;11.156;2023-09-19T08:45:32;1.35;;;0.75;;
4078;SDS011;2054;47.858;11.156;2023-09-19T08:48:00;1.23;;;1.05;;
4078;SDS011;2054;47.858;11.156;2023-09-19T08:50:42;0.80;;;0.80;;
4078;SDS011;2054;47.858;11.156;2023-09-19T08:53:15;1.83;;;1.02;;
4078;SDS011;2054;47.858;11.156;2023-09-19T08:55:50;2.45;;;1.10;;
4078;SDS011;2054;47.858;11.156;2023-09-19T08:58:21;1.77;;;1.60;;
4078;SDS011;2054;47.858;11.156;2023-09-19T09:00:53;3.38;;;0.90;;
4078;SDS011;2054;47.858;11.156;2023-09-19T09:03:21;1.10;;;0.90;;
4078;SDS011;2054;47.858;11.156;2023-09-19T09:05:51;0.80;;;0.80;;
4078;SDS011;2054;47.858;11.156;2023-09-19T09:08:18;1.85;;;1.08;;
4078;SDS011;2054;47.858;11.156;2023-09-19T09:10:46;1.10;;;1.00;;
4078;SDS011;2054;47.858;11.156;2023-09-19T09:13:14;1.63;;;0.90;;
4078;SDS011;2054;47.858;11.156;2023-09-19T09:15:41;1.85;;;1.02;;
4078;SDS011;2054;47.858;11.156;2023-09-19T09:18:09;1.30;;;1.10;;
4078;SDS011;2054;47.858;11.156;2023-09-19T09:20:37;0.88;;;0.88;;
4078;SDS011;2054;47.858;11.156;2023-09-19T09:23:05;1.27;;;0.85;;
4078;SDS011;2054;47.858;11.156;2023-09-19T09:25:47;1.98;;;1.20;;
4078;SDS011;2054;47.858;11.156;2023-09-19T09:28:20;0.80;;;0.80;;
4078;SDS011;2054;47.858;11.156;2023-09-19T09:30:48;1.10;;;1.00;;
4078;SDS011;2054;47.858;11.156;2023-09-19T09:33:16;1.33;;;1.08;;
4078;SDS011;2054;47.858;11.156;2023-09-19T09:35:47;2.90;;;0.90;;
4078;SDS011;2054;47.858;11.156;2023-09-19T09:38:18;0.88;;;0.88;;
4078;SDS011;2054;47.858;11.156;2023-09-19T09:40:46;2.53;;;1.00;;
4078;SDS011;2054;47.858;11.156;2023-09-19T09:43:30;3.03;;;1.10;;
4078;SDS011;2054;47.858;11.156;2023-09-19T09:46:07;1.67;;;1.10;;
4078;SDS011;2054;47.858;11.156;2023-09-19T09:48:57;1.65;;;1.13;;
4078;SDS011;2054;47.858;11.156;2023-09-19T09:51:43;1.60;;;1.10;;
4078;SDS011;2054;47.858;11.156;2023-09-19T09:54:24;1.23;;;1.00;;
4078;SDS011;2054;47.858;11.156;2023-09-19T09:56:53;1.50;;;1.10;;
4078;SDS011;2054;47.858;11.156;2023-09-19T09:59:24;2.00;;;1.15;;
4078;SDS011;2054;47.858;11.156;2023-09-19T10:02:14;1.58;;;1.00;;
4078;SDS011;2054;47.858;11.156;2023-09-19T10:04:45;1.08;;;0.98;;
4078;SDS011;2054;47.858;11.156;2023-09-19T10:07:24;1.25;;;1.13;;
4078;SDS011;2054;47.858;11.156;2023-09-19T10:09:58;1.10;;;1.00;;
4078;SDS011;2054;47.858;11.156;2023-09-19T10:12:34;4.10;;;1.10;;
4078;SDS011;2054;47.858;11.156;2023-09-19T10:15:05;2.25;;;1.00;;
4078;SDS011;2054;47.858;11.156;2023-09-19T10:17:36;1.70;;;1.30;;
4078;SDS011;2054;47.858;11.156;2023-09-19T10:20:06;2.17;;;1.10;;
4078;SDS011;2054;47.858;11.156;2023-09-19T10:22:47;1.60;;;1.10;;
4078;SDS011;2054;47.858;11.156;2023-09-19T10:25:24;1.45;;;1.08;;
4078;SDS011;2054;47.858;11.156;2023-09-19T10:27:53;1.98;;;1.30;;
4078;SDS011;2054;47.858;11.156;2023-09-19T10:30:23;2.92;;;1.17;;
4078;SDS011;2054;47.858;11.156;2023-09-19T10:32:53;1.15;;;1.05;;
4078;SDS011;2054;47.858;11.156;2023-09-19T10:35:26;1.58;;;1.40;;
4078;SDS011;2054;47.858;11.156;2023-09-19T10:37:56;1.35;;;1.20;;
4078;SDS011;2054;47.858;11.156;2023-09-19T10:40:27;1.40;;;1.20;;
4078;SDS011;2054;47.858;11.156;2023-09-19T10:43:00;1.05;;;0.90;;
4078;SDS011;2054;47.858;11.156;2023-09-19T10:45:32;1.20;;;1.05;;
4078;SDS011;2054;47.858;11.156;2023-09-19T10:48:01;3.35;;;1.10;;
4078;SDS011;2054;47.858;11.156;2023-09-19T10:50:30;2.33;;;0.90;;
4078;SDS011;2054;47.858;11.156;2023-09-19T10:53:02;1.20;;;1.10;;
4078;SDS011;2054;47.858;11.156;2023-09-19T10:55:34;2.03;;;1.13;;
4078;SDS011;2054;47.858;11.156;2023-09-19T10:58:03;4.30;;;1.15;;
4078;SDS011;2054;47.858;11.156;2023-09-19T11:00:52;2.63;;;1.30;;
4078;SDS011;2054;47.858;11.156;2023-09-19T11:03:20;2.03;;;1.30;;
4078;SDS011;2054;47.858;11.156;2023-09-19T11:06:01;2.47;;;1.05;;
4078;SDS011;2054;47.858;11.156;2023-09-19T11:11:41;1.30;;;1.20;;
4078;SDS011;2054;47.858;11.156;2023-09-19T11:14:14;1.35;;;1.25;;
4078;SDS011;2054;47.858;11.156;2023-09-19T11:20:22;1.33;;;1.23;;
4078;SDS011;2054;47.858;11.156;2023-09-19T11:23:19;1.10;;;1.00;;
4078;SDS011;2054;47.858;11.156;2023-09-19T11:25:51;3.17;;;1.13;;
4078;SDS011;2054;47.858;11.156;2023-09-19T11:28:33;2.65;;;1.00;;
4078;SDS011;2054;47.858;11.156;2023-09-19T11:40:10;1.45;;;1.20;;
4078;SDS011;2054;47.858;11.156;2023-09-19T11:42:42;1.10;;;1.00;;
4078;SDS011;2054;47.858;11.156;2023-09-19T11:48:23;1.17;;;0.93;;
4078;SDS011;2054;47.858;11.156;2023-09-19T11:50:52;2.28;;;1.33;;
4078;SDS011;2054;47.858;11.156;2023-09-19T11:53:21;1.45;;;1.10;;
4078;SDS011;2054;47.858;11.156;2023-09-19T11:55:50;1.13;;;1.08;;
4078;SDS011;2054;47.858;11.156;2023-09-19T11:58:17;2.08;;;1.20;;
4078;SDS011;2054;47.858;11.156;2023-09-19T12:00:45;2.08;;;1.20;;
4078;SDS011;2054;47.858;11.156;2023-09-19T12:03:24;1.27;;;1.08;;
4078;SDS011;2054;47.858;11.156;2023-09-19T12:05:57;1.10;;;0.93;;
4078;SDS011;2054;47.858;11.156;2023-09-19T12:08:28;1.10;;;1.00;;
4078;SDS011;2054;47.858;11.156;2023-09-19T12:10:55;3.13;;;1.30;;
4078;SDS011;2054;47.858;11.156;2023-09-19T12:13:23;1.45;;;1.35;;
4078;SDS011;2054;47.858;11.156;2023-09-19T12:15:50;1.35;;;1.20;;
4078;SDS011;2054;47.858;11.156;2023-09-19T12:18:28;1.17;;;1.00;;
4078;SDS011;2054;47.858;11.156;2023-09-19T12:20:56;1.48;;;1.00;;
4078;SDS011;2054;47.858;11.156;2023-09-19T12:23:24;1.40;;;1.10;;
4078;SDS011;2054;47.858;11.156;2023-09-19T12:25:52;1.20;;;1.08;;
4078;SDS011;2054;47.858;11.156;2023-09-19T12:28:22;1.48;;;1.20;;
4078;SDS011;2054;47.858;11.156;2023-09-19T12:30:53;1.55;;;1.15;;
4078;SDS011;2054;47.858;11.156;2023-09-19T12:33:21;1.73;;;1.10;;
4078;SDS011;2054;47.858;11.156;2023-09-19T12:35:52;1.10;;;1.00;;
4078;SDS011;2054;47.858;11.156;2023-09-19T12:38:25;1.67;;;1.42;;
4078;SDS011;2054;47.858;11.156;2023-09-19T12:40:54;3.40;;;1.23;;
4078;SDS011;2054;47.858;11.156;2023-09-19T12:43:23;2.75;;;1.00;;
4078;SDS011;2054;47.858;11.156;2023-09-19T12:45:52;1.52;;;1.05;;
4078;SDS011;2054;47.858;11.156;2023-09-19T12:48:22;1.70;;;1.08;;
4078;SDS011;2054;47.858;11.156;2023-09-19T12:51:13;0.95;;;0.90;;
4078;SDS011;2054;47.858;11.156;2023-09-19T12:53:41;1.20;;;1.00;;
4078;SDS011;2054;47.858;11.156;2023-09-19T12:56:10;1.80;;;1.00;;
4078;SDS011;2054;47.858;11.156;2023-09-19T12:58:48;1.10;;;1.00;;
4078;SDS011;2054;47.858;11.156;2023-09-19T13:01:16;1.23;;;1.13;;
4078;SDS011;2054;47.858;11.156;2023-09-19T13:03:43;0.93;;;0.88;;
4078;SDS011;2054;47.858;11.156;2023-09-19T13:06:12;1.27;;;1.00;;
4078;SDS011;2054;47.858;11.156;2023-09-19T13:08:42;3.72;;;1.00;;
4078;SDS011;2054;47.858;11.156;2023-09-19T13:11:14;0.95;;;0.95;;
4078;SDS011;2054;47.858;11.156;2023-09-19T13:13:44;2.83;;;1.20;;
4078;SDS011;2054;47.858;11.156;2023-09-19T13:16:14;1.33;;;1.20;;
4078;SDS011;2054;47.858;11.156;2023-09-19T13:18:45;2.65;;;1.40;;
4078;SDS011;2054;47.858;11.156;2023-09-19T13:21:17;1.77;;;1.30;;
4078;SDS011;2054;47.858;11.156;2023-09-19T13:23:54;1.27;;;1.13;;
4078;SDS011;2054;47.858;11.156;2023-09-19T13:26:24;1.02;;;1.00;;
4078;SDS011;2054;47.858;11.156;2023-09-19T13:28:52;1.65;;;0.88;;
4078;SDS011;2054;47.858;11.156;2023-09-19T13:31:19;1.52;;;1.00;;
4078;SDS011;2054;47.858;11.156;2023-09-19T13:33:47;1.88;;;1.00;;
4078;SDS011;2054;47.858;11.156;2023-09-19T13:36:16;1.75;;;1.00;;
4078;SDS011;2054;47.858;11.156;2023-09-19T13:38:43;3.00;;;1.20;;
4078;SDS011;2054;47.858;11.156;2023-09-19T13:41:13;0.98;;;0.98;;
4078;SDS011;2054;47.858;11.156;2023-09-19T13:43:41;2.38;;;1.10;;
4078;SDS011;2054;47.858;11.156;2023-09-19T13:46:13;1.15;;;1.00;;
4078;SDS011;2054;47.858;11.156;2023-09-19T13:48:42;2.13;;;1.00;;
4078;SDS011;2054;47.858;11.156;2023-09-19T13:51:09;0.95;;;0.93;;
4078;SDS011;2054;47.858;11.156;2023-09-19T13:53:38;0.95;;;0.85;;
4078;SDS011;2054;47.858;11.156;2023-09-19T13:56:05;0.90;;;0.90;;
4078;SDS011;2054;47.858;11.156;2023-09-19T13:58:32;1.20;;;0.80;;
4078;SDS011;2054;47.858;11.156;2023-09-19T14:00:59;0.80;;;0.80;;
4078;SDS011;2054;47.858;11.156;2023-09-19T14:03:26;1.10;;;0.70;;
4078;SDS011;2054;47.858;11.156;2023-09-19T14:05:54;0.73;;;0.73;;
4078;SDS011;2054;47.858;11.156;2023-09-19T14:08:20;1.70;;;0.80;;
4078;SDS011;2054;47.858;11.156;2023-09-19T14:10:50;1.30;;;0.80;;
4078;SDS011;2054;47.858;11.156;2023-09-19T14:13:18;0.77;;;0.70;;
4078;SDS011;2054;47.858;11.156;2023-09-19T14:15:45;0.80;;;0.80;;
4078;SDS011;2054;47.858;11.156;2023-09-19T14:18:12;1.05;;;0.80;;
4078;SDS011;2054;47.858;11.156;2023-09-19T14:20:39;0.85;;;0.82;;
4078;SDS011;2054;47.858;11.156;2023-09-19T14:23:07;1.05;;;0.70;;
4078;SDS011;2054;47.858;11.156;2023-09-19T14:25:34;1.00;;;0.90;;
4078;SDS011;2054;47.858;11.156;2023-09-19T14:28:03;1.25;;;0.60;;
4078;SDS011;2054;47.858;11.156;2023-09-19T14:30:32;0.85;;;0.70;;
4078;SDS011;2054;47.858;11.156;2023-09-19T14:32:59;0.80;;;0.80;;
4078;SDS011;2054;47.858;11.156;2023-09-19T14:35:27;2.05;;;0.77;;
4078;SDS011;2054;47.858;11.156;2023-09-19T14:37:53;1.20;;;0.80;;
4078;SDS011;2054;47.858;11.156;2023-09-19T14:40:20;1.42;;;0.88;;
4078;SDS011;2054;47.858;11.156;2023-09-19T14:42:47;1.00;;;0.90;;
4078;SDS011;2054;47.858;11.156;2023-09-19T14:45:16;0.88;;;0.80;;
4078;SDS011;2054;47.858;11.156;2023-09-19T14:47:43;0.90;;;0.77;;
4078;SDS011;2054;47.858;11.156;2023-09-19T14:50:12;0.80;;;0.70;;
4078;SDS011;2054;47.858;11.156;2023-09-19T14:52:40;2.08;;;0.80;;
4078;SDS011;2054;47.858;11.156;2023-09-19T14:55:07;1.00;;;0.90;;
4078;SDS011;2054;47.858;11.156;2023-09-19T14:57:40;0.85;;;0.60;;
4078;SDS011;2054;47.858;11.156;2023-09-19T15:00:10;1.95;;;0.82;;
4078;SDS011;2054;47.858;11.156;2023-09-19T15:02:40;1.38;;;1.00;;
4078;SDS011;2054;47.858;11.156;2023-09-19T15:05:07;1.85;;;0.80;;
4078;SDS011;2054;47.858;11.156;2023-09-19T15:07:34;1.02;;;0.80;;
4078;SDS011;2054;47.858;11.156;2023-09-19T15:10:03;0.73;;;0.73;;
4078;SDS011;2054;47.858;11.156;2023-09-19T15:12:32;1.50;;;0.80;;
4078;SDS011;2054;47.858;11.156;2023-09-19T15:15:00;2.17;;;0.70;;
4078;SDS011;2054;47.858;11.156;2023-09-19T15:17:27;0.85;;;0.85;;
4078;SDS011;2054;47.858;11.156;2023-09-19T15:19:55;0.80;;;0.80;;
4078;SDS011;2054;47.858;11.156;2023-09-19T15:22:22;1.92;;;0.90;;
4078;SDS011;2054;47.858;11.156;2023-09-19T15:24:50;1.58;;;0.88;;
4078;SDS011;2054;47.858;11.156;2023-09-19T15:27:17;0.65;;;0.65;;
4078;SDS011;2054;47.858;11.156;2023-09-19T15:29:44;0.70;;;0.70;;
4078;SDS011;2054;47.858;11.156;2023-09-19T15:32:12;0.80;;;0.80;;
4078;SDS011;2054;47.858;11.156;2023-09-19T15:34:39;1.30;;;0.80;;
4078;SDS011;2054;47.858;11.156;2023-09-19T15:37:07;0.70;;;0.70;;
4078;SDS011;2054;47.858;11.156;2023-09-19T15:39:34;0.70;;;0.70;;
4078;SDS011;2054;47.858;11.156;2023-09-19T15:42:02;0.82;;;0.80;;
4078;SDS011;2054;47.858;11.156;2023-09-19T15:44:29;0.77;;;0.77;;
4078;SDS011;2054;47.858;11.156;2023-09-19T15:46:57;1.25;;;0.88;;
4078;SDS011;2054;47.858;11.156;2023-09-19T15:49:24;0.80;;;0.80;;
4078;SDS011;2054;47.858;11.156;2023-09-19T15:51:51;0.80;;;0.80;;
4078;SDS011;2054;47.858;11.156;2023-09-19T15:54:19;1.20;;;0.75;;
4078;SDS011;2054;47.858;11.156;2023-09-19T15:56:47;0.98;;;0.80;;
4078;SDS011;2054;47.858;11.156;2023-09-19T15:59:16;0.90;;;0.82;;
4078;SDS011;2054;47.858;11.156;2023-09-19T16:01:43;1.70;;;0.73;;
4078;SDS011;2054;47.858;11.156;2023-09-19T16:04:11;1.20;;;0.70;;
4078;SDS011;2054;47.858;11.156;2023-09-19T16:06:38;0.80;;;0.80;;
4078;SDS011;2054;47.858;11.156;2023-09-19T16:09:06;1.00;;;0.85;;
4078;SDS011;2054;47.858;11.156;2023-09-19T16:11:34;1.98;;;0.80;;
4078;SDS011;2054;47.858;11.156;2023-09-19T16:14:01;1.10;;;0.85;;
4078;SDS011;2054;47.858;11.156;2023-09-19T16:16:29;1.05;;;0.90;;
4078;SDS011;2054;47.858;11.156;2023-09-19T16:18:57;0.80;;;0.80;;
4078;SDS011;2054;47.858;11.156;2023-09-19T16:21:28;1.35;;;1.05;;
4078;SDS011;2054;47.858;11.156;2023-09-19T16:23:57;0.80;;;0.80;;
4078;SDS011;2054;47.858;11.156;2023-09-19T16:26:25;1.45;;;0.90;;
4078;SDS011;2054;47.858;11.156;2023-09-19T16:28:55;0.93;;;0.90;;
4078;SDS011;2054;47.858;11.156;2023-09-19T16:31:25;0.70;;;0.70;;
4078;SDS011;2054;47.858;11.156;2023-09-19T16:33:53;3.45;;;0.95;;
4078;SDS011;2054;47.858;11.156;2023-09-19T16:36:21;2.53;;;0.90;;
4078;SDS011;2054;47.858;11.156;2023-09-19T16:38:49;0.80;;;0.80;;
4078;SDS011;2054;47.858;11.156;2023-09-19T16:41:20;0.93;;;0.85;;
4078;SDS011;2054;47.858;11.156;2023-09-19T16:43:47;1.10;;;1.00;;
4078;SDS011;2054;47.858;11.156;2023-09-19T16:46:15;2.33;;;0.90;;
4078;SDS011;2054;47.858;11.156;2023-09-19T16:48:43;0.90;;;0.90;;
4078;SDS011;2054;47.858;11.156;2023-09-19T16:51:12;0.88;;;0.88;;
4078;SDS011;2054;47.858;11.156;2023-09-19T16:53:41;1.08;;;1.02;;
4078;SDS011;2054;47.858;11.156;2023-09-19T16:56:11;1.27;;;0.90;;
4078;SDS011;2054;47.858;11.156;2023-09-19T16:58:40;1.17;;;0.85;;
4078;SDS011;2054;47.858;11.156;2023-09-19T17:01:09;1.00;;;1.00;;
4078;SDS011;2054;47.858;11.156;2023-09-19T17:03:37;3.58;;;1.17;;
4078;SDS011;2054;47.858;11.156;2023-09-19T17:06:05;2.28;;;1.20;;
4078;SDS011;2054;47.858;11.156;2023-09-19T17:08:32;1.27;;;1.17;;
4078;SDS011;2054;47.858;11.156;2023-09-19T17:10:59;1.65;;;1.10;;
4078;SDS011;2054;47.858;11.156;2023-09-19T17:13:27;2.97;;;1.20;;
4078;SDS011;2054;47.858;11.156;2023-09-19T17:16:01;1.10;;;1.00;;
4078;SDS011;2054;47.858;11.156;2023-09-19T17:18:29;1.20;;;1.10;;
4078;SDS011;2054;47.858;11.156;2023-09-19T17:20:59;2.20;;;1.02;;
4078;SDS011;2054;47.858;11.156;2023-09-19T17:23:26;1.02;;;0.90;;
4078;SDS011;2054;47.858;11.156;2023-09-19T17:26:01;1.38;;;1.15;;
4078;SDS011;2054;47.858;11.156;2023-09-19T17:28:31;2.70;;;1.20;;
4078;SDS011;2054;47.858;11.156;2023-09-19T17:30:58;2.42;;;1.10;;
4078;SDS011;2054;47.858;11.156;2023-09-19T17:33:28;1.33;;;1.05;;
4078;SDS011;2054;47.858;11.156;2023-09-19T17:36:06;1.27;;;1.13;;
4078;SDS011;2054;47.858;11.156;2023-09-19T17:38:35;1.55;;;1.00;;
4078;SDS011;2054;47.858;11.156;2023-09-19T17:41:02;1.73;;;1.35;;
4078;SDS011;2054;47.858;11.156;2023-09-19T17:43:30;2.30;;;1.30;;
4078;SDS011;2054;47.858;11.156;2023-09-19T17:46:08;1.40;;;1.00;;
4078;SDS011;2054;47.858;11.156;2023-09-19T17:48:36;2.67;;;1.23;;
4078;SDS011;2054;47.858;11.156;2023-09-19T17:51:07;2.42;;;1.20;;
4078;SDS011;2054;47.858;11.156;2023-09-19T17:53:35;0.80;;;0.80;;
4078;SDS011;2054;47.858;11.156;2023-09-19T17:56:03;1.17;;;1.08;;
4078;SDS011;2054;47.858;11.156;2023-09-19T17:58:30;3.90;;;2.60;;
4078;SDS011;2054;47.858;11.156;2023-09-19T18:01:03;3.45;;;2.20;;
4078;SDS011;2054;47.858;11.156;2023-09-19T18:03:34;1.60;;;1.48;;
4078;SDS011;2054;47.858;11.156;2023-09-19T18:06:01;1.60;;;1.17;;
4078;SDS011;2054;47.858;11.156;2023-09-19T18:08:30;1.52;;;1.10;;
4078;SDS011;2054;47.858;11.156;2023-09-19T18:11:00;1.42;;;1.20;;
4078;SDS011;2054;47.858;11.156;2023-09-19T18:13:27;4.55;;;1.38;;
4078;SDS011;2054;47.858;11.156;2023-09-19T18:15:55;3.35;;;1.30;;
4078;SDS011;2054;47.858;11.156;2023-09-19T18:18:24;1.98;;;1.45;;